sensor_id;sensor_type;location;lat;lon;timestamp;pressure;altitude;pressure_sealevel;temperature;humidity
18765;BME280;9511;54.242;12.448;2023-05-20T03:04:44;102712.03;;;8.09;100.00
18765;BME280;9511;54.242;12.448;2023-05-20T03:07:13;102717.41;;;8.10;100.00
18765;BME280;9511;54.242;12.448;2023-05-20T03:09:44;102719.94;;;8.09;100.00
18765;BME280;9511;54.242;12.448;2023-05-20T03:12:11;102729.19;;;8.15;100.00
18765;BME280;9511;54.242;12.448;2023-05-20T03:14:39;102723.69;;;8.12;100.00
18765;BME280;9511;54.242;12.448;2023-05-20T03:17:07;102726.13;;;8.09;100.00
18765;BME280;9511;54.242;12.448;2023-05-20T03:19:34;102724.19;;;8.07;100.00
18765;BME280;9511;54.242;12.448;2023-05-20T03:22:05;102721.47;;;8.05;100.00
18765;BME280;9511;54.242;12.448;2023-05-20T03:24:32;102723.69;;;7.99;100.00
18765;BME280;9511;54.242;12.448;2023-05-20T03:27:00;102733.19;;;7.97;100.00
18765;BME280;9511;54.242;12.448;2023-05-20T03:29:28;102726.91;;;7.95;100.00
18765;BME280;9511;54.242;12.448;2023-05-20T03:31:56;102723.28;;;7.93;100.00
18765;BME280;9511;54.242;12.448;2023-05-20T03:34:23;102725.81;;;7.91;100.00
18765;BME280;9511;54.242;12.448;2023-05-20T03:36:53;102724.88;;;7.91;100.00
18765;BME280;9511;54.242;12.448;2023-05-20T03:39:21;102725.91;;;7.93;100.00
18765;BME280;9511;54.242;12.448;2023-05-20T03:41:49;102730.56;;;7.97;100.00
18765;BME280;9511;54.242;12.448;2023-05-20T03:44:16;102725.91;;;8.06;100.00
18765;BME280;9511;54.242;12.448;2023-05-20T03:46:44;102727.94;;;8.10;100.00
18765;BME280;9511;54.242;12.448;2023-05-20T03:49:14;102730.19;;;8.17;100.00
18765;BME280;9511;54.242;12.448;2023-05-20T03:51:42;102741.22;;;8.25;100.00
18765;BME280;9511;54.242;12.448;2023-05-20T03:54:11;102736.25;;;8.30;100.00
18765;BME280;9511;54.242;12.448;2023-05-20T03:56:40;102716.38;;;8.35;100.00
18765;BME280;9511;54.242;12.448;2023-05-20T03:59:07;102728.25;;;8.41;100.00
18765;BME280;9511;54.242;12.448;2023-05-20T04:01:35;102727.97;;;8.50;100.00
18765;BME280;9511;54.242;12.448;2023-05-20T04:04:03;102719.25;;;8.51;100.00
18765;BME280;9511;54.242;12.448;2023-05-20T04:06:31;102732.22;;;8.48;100.00
18765;BME280;9511;54.242;12.448;2023-05-20T04:08:59;102732.22;;;8.48;100.00
18765;BME280;9511;54.242;12.448;2023-05-20T04:11:27;102729.78;;;8.51;100.00
18765;BME280;9511;54.242;12.448;2023-05-20T04:13:55;102736.06;;;8.53;100.00
18765;BME280;9511;54.242;12.448;2023-05-20T04:16:23;102729.28;;;8.57;100.00
18765;BME280;9511;54.242;12.448;2023-05-20T04:18:51;102724.31;;;8.61;100.00
18765;BME280;9511;54.242;12.448;2023-05-20T04:21:18;102726.50;;;8.68;100.00
18765;BME280;9511;54.242;12.448;2023-05-20T04:23:46;102720.81;;;8.75;100.00
18765;BME280;9511;54.242;12.448;2023-05-20T04:26:13;102713.41;;;8.83;100.00
18765;BME280;9511;54.242;12.448;2023-05-20T04:28:41;102720.75;;;8.89;100.00
18765;BME280;9511;54.242;12.448;2023-05-20T04:31:10;102726.63;;;8.98;100.00
18765;BME280;9511;54.242;12.448;2023-05-20T04:33:38;102722.75;;;9.06;100.00
18765;BME280;9511;54.242;12.448;2023-05-20T04:36:09;102726.78;;;9.14;100.00
18765;BME280;9511;54.242;12.448;2023-05-20T04:38:37;102730.63;;;9.19;100.00
18765;BME280;9511;54.242;12.448;2023-05-20T04:41:05;102736.44;;;9.28;100.00
18765;BME280;9511;54.242;12.448;2023-05-20T04:43:33;102742.41;;;9.39;100.00
18765;BME280;9511;54.242;12.448;2023-05-20T04:46:00;102737.63;;;9.47;100.00
18765;BME280;9511;54.242;12.448;2023-05-20T04:48:32;102744.25;;;9.55;100.00
18765;BME280;9511;54.242;12.448;2023-05-20T04:51:00;102739.34;;;9.61;100.00
18765;BME280;9511;54.242;12.448;2023-05-20T04:53:27;102732.72;;;9.82;100.00
18765;BME280;9511;54.242;12.448;2023-05-20T04:55:55;102739.63;;;9.95;100.00
18765;BME280;9511;54.242;12.448;2023-05-20T04:58:23;102736.81;;;10.07;100.00
18765;BME280;9511;54.242;12.448;2023-05-20T05:00:51;102745.28;;;10.16;100.00
18765;BME280;9511;54.242;12.448;2023-05-20T05:03:19;102735.16;;;10.39;100.00
18765;BME280;9511;54.242;12.448;2023-05-20T05:05:48;102743.97;;;10.54;100.00
18765;BME280;9511;54.242;12.448;2023-05-20T05:08:16;102742.75;;;10.63;99.47
18765;BME280;9511;54.242;12.448;2023-05-20T05:10:49;102739.25;;;10.79;98.15
18765;BME280;9511;54.242;12.448;2023-05-20T05:13:17;102735.28;;;11.04;96.80
18765;BME280;9511;54.242;12.448;2023-05-20T05:15:44;102747.97;;;11.09;96.17
18765;BME280;9511;54.242;12.448;2023-05-20T05:18:11;102746.03;;;11.23;95.74
18765;BME280;9511;54.242;12.448;2023-05-20T05:20:43;102748.03;;;11.43;94.23
18765;BME280;9511;54.242;12.448;2023-05-20T05:23:13;102749.78;;;11.59;94.09
18765;BME280;9511;54.242;12.448;2023-05-20T05:25:40;102737.22;;;11.73;92.94
18765;BME280;9511;54.242;12.448;2023-05-20T05:28:08;102743.69;;;11.94;91.73
18765;BME280;9511;54.242;12.448;2023-05-20T05:30:35;102736.41;;;12.08;90.78
18765;BME280;9511;54.242;12.448;2023-05-20T05:33:03;102741.09;;;11.96;90.42
18765;BME280;9511;54.242;12.448;2023-05-20T05:35:31;102741.47;;;12.04;90.39
18765;BME280;9511;54.242;12.448;2023-05-20T05:37:58;102741.88;;;12.11;89.57
18765;BME280;9511;54.242;12.448;2023-05-20T05:40:27;102729.84;;;12.18;88.56
18765;BME280;9511;54.242;12.448;2023-05-20T05:42:55;102737.19;;;12.23;88.29
18765;BME280;9511;54.242;12.448;2023-05-20T05:45:22;102735.97;;;11.99;87.94
18765;BME280;9511;54.242;12.448;2023-05-20T05:47:50;102743.38;;;11.88;88.35
18765;BME280;9511;54.242;12.448;2023-05-20T05:50:17;102738.81;;;11.86;88.48
18765;BME280;9511;54.242;12.448;2023-05-20T05:52:45;102743.13;;;11.84;87.67
18765;BME280;9511;54.242;12.448;2023-05-20T05:55:12;102741.22;;;11.81;88.67
18765;BME280;9511;54.242;12.448;2023-05-20T05:57:42;102733.38;;;12.01;88.13
18765;BME280;9511;54.242;12.448;2023-05-20T06:00:12;102743.31;;;12.05;88.11
18765;BME280;9511;54.242;12.448;2023-05-20T06:02:45;102744.00;;;12.18;87.82
18765;BME280;9511;54.242;12.448;2023-05-20T06:05:24;102737.31;;;12.09;86.49
18765;BME280;9511;54.242;12.448;2023-05-20T06:07:53;102743.84;;;12.15;86.77
18765;BME280;9511;54.242;12.448;2023-05-20T06:10:20;102739.63;;;12.37;86.13
18765;BME280;9511;54.242;12.448;2023-05-20T06:12:49;102740.38;;;12.34;86.16
18765;BME280;9511;54.242;12.448;2023-05-20T06:15:17;102742.19;;;12.35;85.82
18765;BME280;9511;54.242;12.448;2023-05-20T06:17:45;102743.28;;;12.39;85.33
18765;BME280;9511;54.242;12.448;2023-05-20T06:20:13;102742.88;;;12.31;85.42
18765;BME280;9511;54.242;12.448;2023-05-20T06:22:41;102741.59;;;12.23;84.95
18765;BME280;9511;54.242;12.448;2023-05-20T06:25:09;102734.97;;;12.33;85.02
18765;BME280;9511;54.242;12.448;2023-05-20T06:27:37;102733.34;;;12.35;84.79
18765;BME280;9511;54.242;12.448;2023-05-20T06:30:09;102744.63;;;12.31;85.11
18765;BME280;9511;54.242;12.448;2023-05-20T06:32:37;102739.25;;;12.29;84.63
18765;BME280;9511;54.242;12.448;2023-05-20T06:35:05;102735.81;;;12.32;85.06
18765;BME280;9511;54.242;12.448;2023-05-20T06:37:33;102739.63;;;12.37;85.17
18765;BME280;9511;54.242;12.448;2023-05-20T06:40:01;102730.06;;;12.40;84.34
18765;BME280;9511;54.242;12.448;2023-05-20T06:42:28;102737.34;;;12.44;84.63
18765;BME280;9511;54.242;12.448;2023-05-20T06:45:04;102735.91;;;12.51;84.40
18765;BME280;9511;54.242;12.448;2023-05-20T06:47:38;102727.34;;;12.57;83.65
18765;BME280;9511;54.242;12.448;2023-05-20T06:50:07;102735.72;;;12.66;83.59
18765;BME280;9511;54.242;12.448;2023-05-20T06:52:35;102728.88;;;12.71;83.41
18765;BME280;9511;54.242;12.448;2023-05-20T06:55:04;102725.00;;;12.82;83.25
18765;BME280;9511;54.242;12.448;2023-05-20T06:57:33;102729.69;;;12.88;82.96
18765;BME280;9511;54.242;12.448;2023-05-20T07:00:00;102721.31;;;12.98;82.56
18765;BME280;9511;54.242;12.448;2023-05-20T07:02:29;102720.25;;;12.94;81.42
18765;BME280;9511;54.242;12.448;2023-05-20T07:04:58;102725.72;;;12.97;81.55
18765;BME280;9511;54.242;12.448;2023-05-20T07:07:25;102720.69;;;13.03;82.07
18765;BME280;9511;54.242;12.448;2023-05-20T07:09:53;102718.13;;;13.24;81.49
18765;BME280;9511;54.242;12.448;2023-05-20T07:12:21;102718.97;;;13.23;80.56
18765;BME280;9511;54.242;12.448;2023-05-20T07:14:48;102702.56;;;13.32;79.77
18765;BME280;9511;54.242;12.448;2023-05-20T07:17:16;102703.09;;;13.44;79.14
18765;BME280;9511;54.242;12.448;2023-05-20T07:19:45;102702.78;;;13.58;79.55
18765;BME280;9511;54.242;12.448;2023-05-20T07:22:13;102703.66;;;13.77;79.16
18765;BME280;9511;54.242;12.448;2023-05-20T07:25:13;102700.16;;;13.78;77.61
18765;BME280;9511;54.242;12.448;2023-05-20T07:27:41;102691.34;;;13.79;76.93
18765;BME280;9511;54.242;12.448;2023-05-20T07:30:08;102687.81;;;13.80;76.94
18765;BME280;9511;54.242;12.448;2023-05-20T07:32:37;102690.28;;;13.76;76.82
18765;BME280;9511;54.242;12.448;2023-05-20T07:35:06;102696.84;;;13.84;77.09
18765;BME280;9511;54.242;12.448;2023-05-20T07:37:34;102686.28;;;14.06;76.92
18765;BME280;9511;54.242;12.448;2023-05-20T07:40:04;102690.28;;;14.18;76.53
18765;BME280;9511;54.242;12.448;2023-05-20T07:42:34;102685.81;;;14.39;75.98
18765;BME280;9511;54.242;12.448;2023-05-20T07:45:01;102688.22;;;14.33;74.64
18765;BME280;9511;54.242;12.448;2023-05-20T07:47:30;102688.72;;;14.23;74.54
18765;BME280;9511;54.242;12.448;2023-05-20T07:49:58;102697.03;;;14.30;74.02
18765;BME280;9511;54.242;12.448;2023-05-20T07:52:26;102686.38;;;14.30;73.99
18765;BME280;9511;54.242;12.448;2023-05-20T07:54:55;102690.91;;;14.33;73.74
18765;BME280;9511;54.242;12.448;2023-05-20T07:57:23;102690.06;;;14.34;73.67
18765;BME280;9511;54.242;12.448;2023-05-20T07:59:50;102689.75;;;14.26;73.83
18765;BME280;9511;54.242;12.448;2023-05-20T08:02:18;102688.72;;;14.23;73.68
18765;BME280;9511;54.242;12.448;2023-05-20T08:04:46;102688.34;;;14.14;73.71
18765;BME280;9511;54.242;12.448;2023-05-20T08:07:17;102695.72;;;14.21;74.44
18765;BME280;9511;54.242;12.448;2023-05-20T08:09:51;102690.31;;;14.40;74.59
18765;BME280;9511;54.242;12.448;2023-05-20T08:12:21;102690.22;;;14.59;74.24
18765;BME280;9511;54.242;12.448;2023-05-20T08:14:49;102689.59;;;14.89;73.81
18765;BME280;9511;54.242;12.448;2023-05-20T08:17:16;102692.06;;;15.07;72.78
18765;BME280;9511;54.242;12.448;2023-05-20T08:19:44;102683.59;;;15.19;71.88
18765;BME280;9511;54.242;12.448;2023-05-20T08:22:13;102672.22;;;15.23;71.54
18765;BME280;9511;54.242;12.448;2023-05-20T08:24:40;102688.84;;;15.16;71.92
18765;BME280;9511;54.242;12.448;2023-05-20T08:27:09;102688.25;;;15.00;71.64
18765;BME280;9511;54.242;12.448;2023-05-20T08:29:38;102688.72;;;15.12;71.96
18765;BME280;9511;54.242;12.448;2023-05-20T08:32:05;102689.38;;;15.31;71.39
18765;BME280;9511;54.242;12.448;2023-05-20T08:34:34;102683.00;;;15.26;71.01
18765;BME280;9511;54.242;12.448;2023-05-20T08:37:02;102682.25;;;15.30;70.31
18765;BME280;9511;54.242;12.448;2023-05-20T08:39:29;102686.72;;;15.31;70.61
18765;BME280;9511;54.242;12.448;2023-05-20T08:41:57;102691.00;;;15.26;70.52
18765;BME280;9511;54.242;12.448;2023-05-20T08:44:25;102698.41;;;15.10;70.70
18765;BME280;9511;54.242;12.448;2023-05-20T08:46:55;102690.81;;;14.97;71.17
18765;BME280;9511;54.242;12.448;2023-05-20T08:49:22;102691.19;;;14.84;71.67
18765;BME280;9511;54.242;12.448;2023-05-20T08:51:50;102682.31;;;14.85;72.50
18765;BME280;9511;54.242;12.448;2023-05-20T08:54:18;102681.13;;;14.99;72.11
18765;BME280;9511;54.242;12.448;2023-05-20T08:56:48;102674.59;;;14.91;72.00
18765;BME280;9511;54.242;12.448;2023-05-20T08:59:19;102676.69;;;15.00;71.84
18765;BME280;9511;54.242;12.448;2023-05-20T09:01:47;102674.28;;;15.07;71.74
18765;BME280;9511;54.242;12.448;2023-05-20T09:04:16;102658.84;;;15.21;71.21
18765;BME280;9511;54.242;12.448;2023-05-20T09:06:44;102663.88;;;15.37;70.95
18765;BME280;9511;54.242;12.448;2023-05-20T09:09:12;102653.41;;;15.68;69.64
18765;BME280;9511;54.242;12.448;2023-05-20T09:11:40;102653.47;;;15.71;68.98
18765;BME280;9511;54.242;12.448;2023-05-20T09:14:08;102664.59;;;15.83;68.43
18765;BME280;9511;54.242;12.448;2023-05-20T09:16:35;102659.28;;;15.83;68.03
18765;BME280;9511;54.242;12.448;2023-05-20T09:19:05;102652.72;;;16.00;67.99
18765;BME280;9511;54.242;12.448;2023-05-20T09:21:36;102658.75;;;16.22;67.52
18765;BME280;9511;54.242;12.448;2023-05-20T09:24:04;102648.25;;;16.28;67.39
18765;BME280;9511;54.242;12.448;2023-05-20T09:27:21;102650.00;;;16.26;66.17
18765;BME280;9511;54.242;12.448;2023-05-20T09:32:39;102641.97;;;16.54;64.72
18765;BME280;9511;54.242;12.448;2023-05-20T09:35:15;102637.22;;;16.72;64.35
18765;BME280;9511;54.242;12.448;2023-05-20T09:37:58;102644.25;;;16.99;63.77
18765;BME280;9511;54.242;12.448;2023-05-20T09:40:42;102639.06;;;17.05;62.40
18765;BME280;9511;54.242;12.448;2023-05-20T09:43:46;102639.84;;;17.01;61.80
18765;BME280;9511;54.242;12.448;2023-05-20T09:46:30;102640.75;;;17.02;60.24
18765;BME280;9511;54.242;12.448;2023-05-20T09:49:00;102629.41;;;17.10;60.38
18765;BME280;9511;54.242;12.448;2023-05-20T09:51:42;102629.06;;;16.98;60.23
18765;BME280;9511;54.242;12.448;2023-05-20T09:54:27;102620.91;;;16.93;61.63
18765;BME280;9511;54.242;12.448;2023-05-20T09:57:13;102626.38;;;17.30;61.26
18765;BME280;9511;54.242;12.448;2023-05-20T09:59:46;102619.69;;;17.14;59.60
18765;BME280;9511;54.242;12.448;2023-05-20T10:02:22;102623.91;;;17.04;59.65
18765;BME280;9511;54.242;12.448;2023-05-20T10:04:54;102628.72;;;17.17;59.84
18765;BME280;9511;54.242;12.448;2023-05-20T10:07:36;102616.44;;;17.25;58.50
18765;BME280;9511;54.242;12.448;2023-05-20T10:10:16;102625.34;;;17.58;59.29
18765;BME280;9511;54.242;12.448;2023-05-20T10:12:51;102621.41;;;17.43;58.36
18765;BME280;9511;54.242;12.448;2023-05-20T10:15:27;102617.16;;;17.51;59.11
18765;BME280;9511;54.242;12.448;2023-05-20T10:18:04;102606.94;;;17.70;59.12
18765;BME280;9511;54.242;12.448;2023-05-20T10:20:44;102608.69;;;18.04;58.77
18765;BME280;9511;54.242;12.448;2023-05-20T10:23:19;102616.09;;;18.14;57.67
18765;BME280;9511;54.242;12.448;2023-05-20T10:25:54;102602.00;;;17.85;57.41
18765;BME280;9511;54.242;12.448;2023-05-20T10:28:29;102602.06;;;17.88;57.80
18765;BME280;9511;54.242;12.448;2023-05-20T10:30:58;102604.72;;;17.53;57.63
18765;BME280;9511;54.242;12.448;2023-05-20T10:33:26;102595.91;;;17.24;58.13
18765;BME280;9511;54.242;12.448;2023-05-20T10:35:57;102587.72;;;17.18;58.71
18765;BME280;9511;54.242;12.448;2023-05-20T10:38:24;102597.47;;;16.85;58.51
18765;BME280;9511;54.242;12.448;2023-05-20T10:40:53;102603.44;;;16.75;58.77
18765;BME280;9511;54.242;12.448;2023-05-20T10:43:26;102592.84;;;16.49;58.89
18765;BME280;9511;54.242;12.448;2023-05-20T10:45:55;102597.31;;;16.50;59.12
18765;BME280;9511;54.242;12.448;2023-05-20T10:48:24;102591.97;;;16.50;58.69
18765;BME280;9511;54.242;12.448;2023-05-20T10:50:54;102591.97;;;16.50;58.68
18765;BME280;9511;54.242;12.448;2023-05-20T10:53:24;102591.44;;;16.32;59.04
18765;BME280;9511;54.242;12.448;2023-05-20T10:55:53;102594.09;;;16.32;59.04
18765;BME280;9511;54.242;12.448;2023-05-20T10:58:21;102602.28;;;16.38;58.77
18765;BME280;9511;54.242;12.448;2023-05-20T11:00:52;102591.56;;;16.36;58.38
18765;BME280;9511;54.242;12.448;2023-05-20T11:03:21;102584.81;;;16.49;58.76
18765;BME280;9511;54.242;12.448;2023-05-20T11:05:49;102584.81;;;16.49;58.51
18765;BME280;9511;54.242;12.448;2023-05-20T11:08:17;102570.78;;;16.56;58.95
18765;BME280;9511;54.242;12.448;2023-05-20T11:10:44;102567.91;;;16.49;58.26
18765;BME280;9511;54.242;12.448;2023-05-20T11:13:13;102559.72;;;16.72;58.08
18765;BME280;9511;54.242;12.448;2023-05-20T11:15:41;102560.22;;;16.91;57.54
18765;BME280;9511;54.242;12.448;2023-05-20T11:18:09;102556.59;;;17.20;57.72
18765;BME280;9511;54.242;12.448;2023-05-20T11:20:38;102558.41;;;17.21;56.80
18765;BME280;9511;54.242;12.448;2023-05-20T11:23:10;102548.22;;;17.08;56.54
18765;BME280;9511;54.242;12.448;2023-05-20T11:25:39;102561.28;;;16.96;56.97
18765;BME280;9511;54.242;12.448;2023-05-20T11:28:08;102559.00;;;17.10;56.65
18765;BME280;9511;54.242;12.448;2023-05-20T11:30:37;102548.88;;;16.98;56.29
18765;BME280;9511;54.242;12.448;2023-05-20T11:33:05;102559.91;;;17.10;56.32
18765;BME280;9511;54.242;12.448;2023-05-20T11:35:32;102557.91;;;17.03;55.44
18765;BME280;9511;54.242;12.448;2023-05-20T11:38:01;102555.41;;;17.09;55.85
18765;BME280;9511;54.242;12.448;2023-05-20T11:40:30;102562.63;;;17.13;55.13
18765;BME280;9511;54.242;12.448;2023-05-20T11:43:00;102550.06;;;17.09;54.33
18765;BME280;9511;54.242;12.448;2023-05-20T11:45:39;102542.22;;;17.15;54.03
18765;BME280;9511;54.242;12.448;2023-05-20T11:48:07;102551.44;;;17.28;53.36
18765;BME280;9511;54.242;12.448;2023-05-20T11:50:37;102545.69;;;17.47;52.29
18765;BME280;9511;54.242;12.448;2023-05-20T11:53:07;102537.88;;;17.55;51.83
18765;BME280;9511;54.242;12.448;2023-05-20T11:55:44;102533.97;;;17.77;51.53
18765;BME280;9511;54.242;12.448;2023-05-20T11:58:14;102528.06;;;17.90;50.99
18765;BME280;9511;54.242;12.448;2023-05-20T12:00:43;102524.34;;;17.84;51.40
18765;BME280;9511;54.242;12.448;2023-05-20T12:03:11;102529.69;;;17.84;52.32
18765;BME280;9511;54.242;12.448;2023-05-20T12:05:39;102527.44;;;18.02;51.27
18765;BME280;9511;54.242;12.448;2023-05-20T12:08:07;102526.28;;;17.91;51.73
18765;BME280;9511;54.242;12.448;2023-05-20T12:10:34;102527.59;;;18.10;52.20
18765;BME280;9511;54.242;12.448;2023-05-20T12:13:02;102527.88;;;18.23;51.71
18765;BME280;9511;54.242;12.448;2023-05-20T12:15:33;102525.38;;;17.90;51.61
18765;BME280;9511;54.242;12.448;2023-05-20T12:18:03;102534.78;;;17.73;52.14
18765;BME280;9511;54.242;12.448;2023-05-20T12:20:30;102529.28;;;17.32;52.11
18765;BME280;9511;54.242;12.448;2023-05-20T12:22:59;102523.81;;;17.28;52.92
18765;BME280;9511;54.242;12.448;2023-05-20T12:25:27;102529.88;;;17.20;52.58
18765;BME280;9511;54.242;12.448;2023-05-20T12:27:55;102528.78;;;17.14;53.23
18765;BME280;9511;54.242;12.448;2023-05-20T12:30:23;102539.84;;;17.28;53.78
18765;BME280;9511;54.242;12.448;2023-05-20T12:32:50;102531.50;;;17.15;53.10
18765;BME280;9511;54.242;12.448;2023-05-20T12:35:24;102527.81;;;17.10;52.85
18765;BME280;9511;54.242;12.448;2023-05-20T12:37:56;102525.31;;;17.18;53.07
18765;BME280;9511;54.242;12.448;2023-05-20T12:40:23;102523.94;;;17.32;53.21
18765;BME280;9511;54.242;12.448;2023-05-20T12:42:51;102515.50;;;17.53;53.73
18765;BME280;9511;54.242;12.448;2023-05-20T12:45:18;102515.34;;;17.82;53.35
18765;BME280;9511;54.242;12.448;2023-05-20T12:47:46;102515.03;;;17.71;53.12
18765;BME280;9511;54.242;12.448;2023-05-20T12:50:16;102504.63;;;17.82;53.60
18765;BME280;9511;54.242;12.448;2023-05-20T12:52:45;102499.38;;;17.86;54.43
18765;BME280;9511;54.242;12.448;2023-05-20T12:55:14;102504.50;;;17.75;54.65
18765;BME280;9511;54.242;12.448;2023-05-20T12:57:42;102509.63;;;17.66;54.74
18765;BME280;9511;54.242;12.448;2023-05-20T13:00:11;102509.97;;;17.80;55.19
18765;BME280;9511;54.242;12.448;2023-05-20T13:02:40;102513.06;;;17.62;55.83
18765;BME280;9511;54.242;12.448;2023-05-20T13:05:09;102505.63;;;17.85;55.44
18765;BME280;9511;54.242;12.448;2023-05-20T13:07:36;102499.78;;;18.03;55.30
18765;BME280;9511;54.242;12.448;2023-05-20T13:10:06;102490.47;;;17.86;54.42
18765;BME280;9511;54.242;12.448;2023-05-20T13:12:35;102492.94;;;18.17;55.00
18765;BME280;9511;54.242;12.448;2023-05-20T13:15:04;102488.47;;;18.18;54.84
18765;BME280;9511;54.242;12.448;2023-05-20T13:17:32;102488.72;;;17.88;55.01
18765;BME280;9511;54.242;12.448;2023-05-20T13:19:59;102488.19;;;18.04;54.87
18765;BME280;9511;54.242;12.448;2023-05-20T13:22:27;102470.06;;;17.92;55.07
18765;BME280;9511;54.242;12.448;2023-05-20T13:24:54;102472.34;;;17.74;54.86
18765;BME280;9511;54.242;12.448;2023-05-20T13:27:23;102463.69;;;17.86;55.87
18765;BME280;9511;54.242;12.448;2023-05-20T13:29:51;102466.25;;;18.23;55.02
18765;BME280;9511;54.242;12.448;2023-05-20T13:32:19;102468.91;;;18.64;53.72
18765;BME280;9511;54.242;12.448;2023-05-20T13:34:46;102472.47;;;19.12;52.97
18765;BME280;9511;54.242;12.448;2023-05-20T13:37:13;102464.81;;;18.83;52.61
18765;BME280;9511;54.242;12.448;2023-05-20T13:39:41;102466.59;;;18.82;53.14
18765;BME280;9511;54.242;12.448;2023-05-20T13:42:08;102469.56;;;18.52;52.61
18765;BME280;9511;54.242;12.448;2023-05-20T13:44:39;102463.00;;;18.37;53.57
18765;BME280;9511;54.242;12.448;2023-05-20T13:47:08;102468.69;;;18.11;53.26
18765;BME280;9511;54.242;12.448;2023-05-20T13:49:36;102455.31;;;18.11;53.02
18765;BME280;9511;54.242;12.448;2023-05-20T13:52:04;102452.97;;;17.86;51.73
18765;BME280;9511;54.242;12.448;2023-05-20T13:54:31;102455.91;;;17.96;51.61
18765;BME280;9511;54.242;12.448;2023-05-20T13:56:59;102451.94;;;18.21;50.81
18765;BME280;9511;54.242;12.448;2023-05-20T13:59:28;102454.47;;;18.12;50.66
18765;BME280;9511;54.242;12.448;2023-05-20T14:01:57;102453.19;;;18.39;50.61
18765;BME280;9511;54.242;12.448;2023-05-20T14:04:24;102444.38;;;18.90;50.07
18765;BME280;9511;54.242;12.448;2023-05-20T14:06:51;102446.13;;;18.88;50.25
18765;BME280;9511;54.242;12.448;2023-05-20T14:09:19;102447.88;;;18.86;50.60
18765;BME280;9511;54.242;12.448;2023-05-20T14:11:46;102436.31;;;18.90;50.97
18765;BME280;9511;54.242;12.448;2023-05-20T14:14:14;102452.81;;;18.64;50.68
18765;BME280;9511;54.242;12.448;2023-05-20T14:16:41;102441.22;;;18.21;51.50
18765;BME280;9511;54.242;12.448;2023-05-20T14:19:10;102436.22;;;18.38;51.99
18765;BME280;9511;54.242;12.448;2023-05-20T14:21:37;102430.78;;;18.79;51.33
18765;BME280;9511;54.242;12.448;2023-05-20T14:24:05;102419.91;;;19.24;50.53
18765;BME280;9511;54.242;12.448;2023-05-20T14:26:32;102425.06;;;19.67;50.27
18765;BME280;9511;54.242;12.448;2023-05-20T14:29:00;102412.34;;;20.23;49.33
18765;BME280;9511;54.242;12.448;2023-05-20T14:31:27;102409.13;;;20.49;48.51
18765;BME280;9511;54.242;12.448;2023-05-20T14:33:55;102412.66;;;20.46;47.85
18765;BME280;9511;54.242;12.448;2023-05-20T14:36:23;102413.63;;;19.81;48.99
18765;BME280;9511;54.242;12.448;2023-05-20T14:38:51;102419.53;;;19.56;49.06
18765;BME280;9511;54.242;12.448;2023-05-20T14:41:18;102422.41;;;19.12;49.91
18765;BME280;9511;54.242;12.448;2023-05-20T14:43:47;102420.50;;;19.05;49.71
18765;BME280;9511;54.242;12.448;2023-05-20T14:46:14;102410.78;;;19.13;50.49
18765;BME280;9511;54.242;12.448;2023-05-20T14:48:41;102403.53;;;19.07;49.92
18765;BME280;9511;54.242;12.448;2023-05-20T14:51:09;102404.81;;;19.32;50.05
18765;BME280;9511;54.242;12.448;2023-05-20T14:53:37;102402.28;;;19.42;49.81
18765;BME280;9511;54.242;12.448;2023-05-20T14:56:05;102404.63;;;19.19;49.64
18765;BME280;9511;54.242;12.448;2023-05-20T14:58:32;102406.28;;;18.62;50.02
18765;BME280;9511;54.242;12.448;2023-05-20T15:00:59;102402.59;;;18.09;51.21
18765;BME280;9511;54.242;12.448;2023-05-20T15:03:27;102387.66;;;18.21;51.09
18765;BME280;9511;54.242;12.448;2023-05-20T15:05:54;102382.97;;;18.10;50.53
18765;BME280;9511;54.242;12.448;2023-05-20T15:08:21;102392.88;;;18.14;49.96
18765;BME280;9511;54.242;12.448;2023-05-20T15:10:50;102390.75;;;18.41;49.51
18765;BME280;9511;54.242;12.448;2023-05-20T15:13:17;102385.69;;;19.09;48.31
18765;BME280;9511;54.242;12.448;2023-05-20T15:15:44;102384.03;;;19.18;46.94
18765;BME280;9511;54.242;12.448;2023-05-20T15:18:12;102386.06;;;18.76;47.90
18765;BME280;9511;54.242;12.448;2023-05-20T15:20:39;102383.41;;;18.33;48.75
18765;BME280;9511;54.242;12.448;2023-05-20T15:23:06;102377.50;;;19.00;48.86
18765;BME280;9511;54.242;12.448;2023-05-20T15:25:33;102376.16;;;19.91;48.40
18765;BME280;9511;54.242;12.448;2023-05-20T15:28:02;102373.19;;;20.45;46.96
18765;BME280;9511;54.242;12.448;2023-05-20T15:30:29;102367.91;;;20.50;46.43
18765;BME280;9511;54.242;12.448;2023-05-20T15:32:57;102369.09;;;19.99;46.80
18765;BME280;9511;54.242;12.448;2023-05-20T15:35:24;102362.75;;;19.28;47.72
18765;BME280;9511;54.242;12.448;2023-05-20T15:37:51;102360.25;;;18.84;49.32
18765;BME280;9511;54.242;12.448;2023-05-20T15:40:19;102366.94;;;18.60;49.71
18765;BME280;9511;54.242;12.448;2023-05-20T15:42:46;102354.03;;;18.36;50.92
18765;BME280;9511;54.242;12.448;2023-05-20T15:45:15;102352.63;;;18.11;51.49
18765;BME280;9511;54.242;12.448;2023-05-20T15:47:42;102353.78;;;17.80;52.06
18765;BME280;9511;54.242;12.448;2023-05-20T15:50:10;102349.22;;;17.35;51.54
18765;BME280;9511;54.242;12.448;2023-05-20T15:52:37;102351.03;;;17.37;52.01
18765;BME280;9511;54.242;12.448;2023-05-20T15:55:05;102351.09;;;17.39;52.35
18765;BME280;9511;54.242;12.448;2023-05-20T15:57:33;102347.31;;;17.31;52.40
18765;BME280;9511;54.242;12.448;2023-05-20T16:00:00;102343.50;;;17.19;52.55
18765;BME280;9511;54.242;12.448;2023-05-20T16:02:32;102337.88;;;17.07;52.67
18765;BME280;9511;54.242;12.448;2023-05-20T16:04:59;102343.78;;;16.94;52.38
18765;BME280;9511;54.242;12.448;2023-05-20T16:07:27;102349.91;;;16.88;52.11